createdAt,value
2023-01-15T00:00:32.137Z,75.35
2023-01-15T00:01:32.237Z,75.35
2023-01-15T00:02:32.166Z,75.25
2023-01-15T00:03:32.138Z,75.35
2023-01-15T00:04:32.085Z,75.35
2023-01-15T00:05:32.071Z,75.35
2023-01-15T00:06:32.058Z,75.35
2023-01-15T00:07:32.047Z,75.35
2023-01-15T00:08:32.034Z,75.35
2023-01-15T00:09:32.038Z,75.35
2023-01-15T00:10:32.022Z,75.35
2023-01-15T00:11:31.994Z,75.35
2023-01-15T00:12:31.982Z,75.35
2023-01-15T00:13:31.971Z,75.35
2023-01-15T00:14:31.955Z,75.35
2023-01-15T00:15:31.950Z,75.35
2023-01-15T00:16:31.926Z,75.35
2023-01-15T00:17:31.916Z,75.35
2023-01-15T00:18:31.900Z,75.35
2023-01-15T00:19:31.888Z,75.45
2023-01-15T00:20:31.883Z,75.35
2023-01-15T00:21:31.912Z,75.45
2023-01-15T00:22:31.848Z,75.45
2023-01-15T00:23:31.836Z,75.45
2023-01-15T00:24:31.825Z,75.35
2023-01-15T00:25:31.814Z,75.35
2023-01-15T00:26:31.798Z,75.35
2023-01-15T00:27:31.786Z,75.35
2023-01-15T00:28:31.787Z,75.35
2023-01-15T00:29:31.760Z,75.35
2023-01-15T00:30:31.745Z,75.35
2023-01-15T00:31:31.797Z,75.35
2023-01-15T00:32:31.722Z,75.35
2023-01-15T00:33:31.705Z,75.45
2023-01-15T00:34:31.691Z,75.45
2023-01-15T00:35:31.683Z,75.45
2023-01-15T00:36:31.664Z,75.35
2023-01-15T00:37:31.655Z,75.35
2023-01-15T00:38:31.644Z,75.35
2023-01-15T00:39:31.629Z,75.35
2023-01-15T00:40:31.617Z,75.45
2023-01-15T00:41:31.606Z,75.45
2023-01-15T00:42:31.590Z,75.45
2023-01-15T00:43:31.572Z,75.55
2023-01-15T00:44:31.561Z,75.45
2023-01-15T00:45:31.551Z,75.45
2023-01-15T00:46:31.621Z,75.45
2023-01-15T00:47:31.521Z,75.45
2023-01-15T00:48:31.507Z,75.45
2023-01-15T00:49:31.496Z,75.45
2023-01-15T00:50:31.481Z,75.45
2023-01-15T00:51:31.467Z,75.45
2023-01-15T00:52:31.455Z,75.45
2023-01-15T00:53:31.445Z,75.55
2023-01-15T00:54:31.435Z,75.55
2023-01-15T00:55:31.415Z,75.45
2023-01-15T00:56:31.411Z,75.45
2023-01-15T00:57:31.393Z,75.45
2023-01-15T00:58:31.373Z,75.55
2023-01-15T00:59:31.365Z,75.45
2023-01-15T01:00:31.397Z,75.55
2023-01-15T01:01:31.473Z,75.55
2023-01-15T01:02:31.355Z,75.55
2023-01-15T01:03:31.318Z,75.55
2023-01-15T01:04:31.301Z,75.55
2023-01-15T01:05:31.284Z,75.55
2023-01-15T01:06:31.267Z,75.55
2023-01-15T01:07:31.269Z,75.55
2023-01-15T01:08:31.242Z,75.55
2023-01-15T01:09:31.247Z,75.55
2023-01-15T01:10:31.222Z,75.55
2023-01-15T01:11:31.204Z,75.55
2023-01-15T01:12:31.188Z,75.55
2023-01-15T01:13:31.179Z,75.55
2023-01-15T01:14:31.165Z,75.55
2023-01-15T01:15:31.151Z,75.65
2023-01-15T01:16:31.175Z,75.55
2023-01-15T01:17:31.125Z,75.55
2023-01-15T01:18:31.119Z,75.65
2023-01-15T01:19:31.099Z,75.65
2023-01-15T01:20:31.084Z,75.55
2023-01-15T01:21:31.100Z,75.65
2023-01-15T01:22:31.059Z,75.65
2023-01-15T01:23:31.051Z,75.65
2023-01-15T01:24:31.037Z,75.65
2023-01-15T01:25:31.018Z,75.65
2023-01-15T01:26:31.020Z,75.55
2023-01-15T01:27:31.003Z,75.65
2023-01-15T01:28:30.978Z,75.65
2023-01-15T01:29:30.968Z,75.65
2023-01-15T01:30:30.955Z,75.65
2023-01-15T01:31:31.107Z,75.55
2023-01-15T01:32:30.930Z,75.55
2023-01-15T01:33:30.920Z,75.65
2023-01-15T01:34:30.905Z,75.65
2023-01-15T01:35:30.893Z,75.65
2023-01-15T01:36:30.875Z,75.65
2023-01-15T01:37:30.867Z,75.65
2023-01-15T01:38:30.959Z,75.65
2023-01-15T01:39:30.837Z,75.65
2023-01-15T01:40:30.839Z,75.65
2023-01-15T01:41:30.810Z,75.65
2023-01-15T01:42:30.796Z,75.65
2023-01-15T01:43:30.781Z,75.76
2023-01-15T01:44:30.769Z,75.65
2023-01-15T01:45:30.810Z,75.65
2023-01-15T01:46:30.745Z,75.76
2023-01-15T01:47:30.732Z,75.65
2023-01-15T01:48:30.798Z,75.65
2023-01-15T01:49:30.702Z,75.65
2023-01-15T01:50:30.692Z,75.65
2023-01-15T01:51:30.676Z,75.65
2023-01-15T01:52:30.666Z,75.76
2023-01-15T01:53:30.779Z,75.76
2023-01-15T01:54:30.644Z,75.65
2023-01-15T01:55:30.642Z,75.65
2023-01-15T01:56:30.622Z,75.65
2023-01-15T01:57:30.595Z,75.76
2023-01-15T01:58:30.602Z,75.76
2023-01-15T01:59:30.573Z,75.65
2023-01-15T02:00:30.638Z,75.65
2023-01-15T02:01:30.662Z,75.76
2023-01-15T02:02:30.715Z,75.76
2023-01-15T02:03:30.580Z,75.65
2023-01-15T02:04:30.506Z,75.65
2023-01-15T02:05:30.491Z,75.65
2023-01-15T02:06:30.480Z,75.65
2023-01-15T02:07:30.464Z,75.65
2023-01-15T02:08:30.456Z,75.55
2023-01-15T02:09:30.440Z,75.65
2023-01-15T02:10:30.433Z,75.65
2023-01-15T02:11:30.413Z,75.65
2023-01-15T02:12:30.402Z,75.65
2023-01-15T02:13:30.387Z,75.55
2023-01-15T02:14:30.377Z,75.65
2023-01-15T02:15:30.360Z,75.65
2023-01-15T02:16:30.419Z,75.65
2023-01-15T02:17:30.336Z,75.65
2023-01-15T02:18:30.323Z,75.55
2023-01-15T02:19:30.323Z,75.65
2023-01-15T02:20:30.297Z,75.65
2023-01-15T02:21:30.279Z,75.65
2023-01-15T02:22:30.286Z,75.65
2023-01-15T02:23:30.255Z,75.65
2023-01-15T02:24:30.243Z,75.65
2023-01-15T02:25:30.235Z,75.65
2023-01-15T02:26:30.216Z,75.55
2023-01-15T02:27:30.206Z,75.65
2023-01-15T02:28:30.189Z,75.55
2023-01-15T02:29:30.176Z,75.55
2023-01-15T02:30:30.164Z,75.45
2023-01-15T02:31:30.240Z,75.55
2023-01-15T02:32:30.148Z,75.55
2023-01-15T02:33:30.121Z,75.55
2023-01-15T02:34:30.114Z,75.55
2023-01-15T02:35:30.097Z,75.45
2023-01-15T02:36:30.087Z,75.45
2023-01-15T02:37:30.081Z,75.45
2023-01-15T02:38:30.062Z,75.45
2023-01-15T02:39:30.046Z,75.45
2023-01-15T02:40:30.036Z,75.45
2023-01-15T02:41:30.017Z,75.45
2023-01-15T02:42:30.007Z,75.55
2023-01-15T02:43:29.990Z,75.45
2023-01-15T02:44:29.980Z,75.55
2023-01-15T02:45:30.048Z,75.45
2023-01-15T02:46:29.951Z,75.45
2023-01-15T02:47:29.941Z,75.45
2023-01-15T02:48:29.928Z,75.45
2023-01-15T02:49:29.920Z,75.45
2023-01-15T02:50:29.901Z,75.45
2023-01-15T02:51:29.884Z,75.45
2023-01-15T02:52:29.873Z,75.45
2023-01-15T02:53:29.860Z,75.45
2023-01-15T02:54:29.862Z,75.45
2023-01-15T02:55:29.835Z,75.45
2023-01-15T02:56:29.827Z,75.45
2023-01-15T02:57:29.806Z,75.45
2023-01-15T02:58:29.805Z,75.45
2023-01-15T02:59:29.780Z,75.45
2023-01-15T03:00:29.766Z,75.55
2023-01-15T03:01:29.831Z,75.45
2023-01-15T03:02:29.799Z,75.35
2023-01-15T03:03:29.727Z,75.45
2023-01-15T03:04:29.717Z,75.45
2023-01-15T03:05:29.700Z,75.45
2023-01-15T03:06:29.688Z,75.45
2023-01-15T03:07:29.674Z,75.55
2023-01-15T03:08:29.665Z,75.45
2023-01-15T03:09:29.650Z,75.55
2023-01-15T03:10:29.644Z,75.55
2023-01-15T03:11:29.620Z,75.55
2023-01-15T03:12:29.614Z,75.55
2023-01-15T03:13:29.606Z,75.55
2023-01-15T03:14:29.585Z,75.55
2023-01-15T03:15:29.569Z,75.65
2023-01-15T03:16:29.585Z,75.55
2023-01-15T03:17:29.543Z,75.55
2023-01-15T03:18:29.530Z,75.55
2023-01-15T03:19:29.520Z,75.65
2023-01-15T03:20:29.511Z,75.65
2023-01-15T03:21:29.499Z,75.65
2023-01-15T03:22:29.481Z,75.65
2023-01-15T03:23:29.464Z,75.65
2023-01-15T03:24:29.456Z,75.65
2023-01-15T03:25:29.453Z,75.65
2023-01-15T03:26:29.434Z,75.65
2023-01-15T03:27:29.422Z,75.65
2023-01-15T03:28:29.409Z,75.65
2023-01-15T03:29:29.387Z,75.65
2023-01-15T03:30:29.455Z,75.76
2023-01-15T03:31:29.359Z,75.76
2023-01-15T03:32:29.355Z,75.65
2023-01-15T03:33:29.333Z,75.65
2023-01-15T03:34:29.330Z,75.65
2023-01-15T03:35:29.307Z,75.65
2023-01-15T03:36:29.307Z,75.65
2023-01-15T03:37:29.288Z,75.65
2023-01-15T03:38:29.268Z,75.65
2023-01-15T03:39:29.258Z,75.65
2023-01-15T03:40:29.242Z,75.65
2023-01-15T03:41:29.231Z,75.76
2023-01-15T03:42:29.218Z,75.65
2023-01-15T03:43:29.203Z,75.76
2023-01-15T03:44:29.189Z,75.65
2023-01-15T03:45:29.174Z,75.65
2023-01-15T03:46:29.164Z,75.76
2023-01-15T03:47:29.148Z,75.76
2023-01-15T03:48:29.158Z,75.86
2023-01-15T03:49:29.127Z,75.89
2023-01-15T03:50:29.113Z,75.79
2023-01-15T03:51:29.099Z,75.76
2023-01-15T03:52:29.097Z,75.79
2023-01-15T03:53:29.071Z,75.79
2023-01-15T03:54:29.058Z,75.79
2023-01-15T03:55:29.046Z,75.79
2023-01-15T03:56:29.033Z,75.76
2023-01-15T03:57:29.018Z,75.79
2023-01-15T03:58:29.018Z,75.79
2023-01-15T03:59:28.992Z,75.79
2023-01-15T04:00:28.987Z,75.79
2023-01-15T04:01:29.130Z,75.79
2023-01-15T04:02:28.955Z,75.79
2023-01-15T04:03:28.938Z,75.79
2023-01-15T04:04:28.977Z,75.79
2023-01-15T04:05:28.912Z,75.79
2023-01-15T04:06:28.902Z,75.79
2023-01-15T04:07:28.887Z,75.79
2023-01-15T04:08:28.875Z,75.79
2023-01-15T04:09:28.858Z,75.89
2023-01-15T04:10:28.849Z,75.79
2023-01-15T04:11:28.847Z,75.89
2023-01-15T04:12:28.820Z,75.79
2023-01-15T04:13:31.233Z,75.79
2023-01-15T04:14:28.807Z,75.79
2023-01-15T04:15:28.813Z,75.79
2023-01-15T04:16:28.793Z,75.89
2023-01-15T04:17:28.757Z,75.79
2023-01-15T04:18:28.767Z,75.89
2023-01-15T04:19:28.731Z,75.89
2023-01-15T04:20:28.716Z,75.79
2023-01-15T04:21:28.702Z,75.79
2023-01-15T04:22:28.692Z,75.89
2023-01-15T04:23:28.681Z,75.79
2023-01-15T04:24:28.664Z,75.79
2023-01-15T04:25:28.665Z,75.79
2023-01-15T04:26:28.641Z,75.79
2023-01-15T04:27:28.630Z,75.89
2023-01-15T04:28:28.620Z,75.79
2023-01-15T04:29:28.597Z,75.79
2023-01-15T04:30:28.594Z,75.79
2023-01-15T04:31:28.574Z,75.79
2023-01-15T04:32:28.560Z,75.79
2023-01-15T04:33:28.549Z,75.79
2023-01-15T04:34:28.535Z,75.79
2023-01-15T04:35:28.521Z,75.89
2023-01-15T04:36:28.509Z,75.79
2023-01-15T04:37:28.493Z,75.79
2023-01-15T04:38:28.482Z,75.89
2023-01-15T04:39:28.472Z,75.89
2023-01-15T04:40:28.455Z,75.89
2023-01-15T04:41:28.445Z,75.79
2023-01-15T04:42:28.432Z,75.79
2023-01-15T04:43:28.414Z,75.79
2023-01-15T04:44:28.402Z,75.79
2023-01-15T04:45:28.390Z,75.79
2023-01-15T04:46:28.466Z,75.79
2023-01-15T04:47:28.359Z,75.89
2023-01-15T04:48:28.350Z,75.79
2023-01-15T04:49:28.338Z,75.89
2023-01-15T04:50:28.323Z,75.89
2023-01-15T04:51:28.309Z,75.89
2023-01-15T04:52:28.297Z,75.89
2023-01-15T04:53:28.286Z,75.89
2023-01-15T04:54:28.275Z,75.89
2023-01-15T04:55:28.263Z,75.89
2023-01-15T04:56:28.250Z,75.79
2023-01-15T04:57:28.229Z,75.79
2023-01-15T04:58:28.217Z,75.79
2023-01-15T04:59:28.206Z,75.79
2023-01-15T05:00:28.196Z,75.79
2023-01-15T05:01:28.320Z,75.79
2023-01-15T05:02:28.339Z,75.79
2023-01-15T05:03:28.151Z,75.79
2023-01-15T05:04:28.169Z,75.79
2023-01-15T05:05:28.143Z,75.79
2023-01-15T05:06:28.146Z,75.79
2023-01-15T05:07:28.148Z,75.69
2023-01-15T05:08:28.087Z,75.79
2023-01-15T05:09:28.090Z,75.79
2023-01-15T05:10:28.074Z,75.69
2023-01-15T05:11:28.064Z,75.79
2023-01-15T05:12:28.044Z,75.79
2023-01-15T05:13:28.019Z,75.69
2023-01-15T05:14:28.085Z,75.69
2023-01-15T05:15:27.994Z,75.69
2023-01-15T05:16:27.986Z,75.69
2023-01-15T05:17:27.983Z,75.69
2023-01-15T05:18:27.957Z,75.69
2023-01-15T05:19:27.944Z,75.79
2023-01-15T05:20:27.930Z,75.79
2023-01-15T05:21:27.922Z,75.69
2023-01-15T05:22:27.903Z,75.69
2023-01-15T05:23:27.890Z,75.69
2023-01-15T05:24:27.877Z,75.69
2023-01-15T05:25:27.882Z,75.69
2023-01-15T05:26:27.851Z,75.69
2023-01-15T05:27:27.840Z,75.69
2023-01-15T05:28:27.825Z,75.69
2023-01-15T05:29:27.816Z,75.69
2023-01-15T05:30:27.802Z,75.69
2023-01-15T05:31:27.806Z,75.69
2023-01-15T05:32:27.772Z,75.69
2023-01-15T05:33:27.768Z,75.69
2023-01-15T05:34:27.750Z,75.69
2023-01-15T05:35:27.733Z,75.69
2023-01-15T05:36:27.740Z,75.69
2023-01-15T05:37:27.706Z,75.69
2023-01-15T05:38:27.696Z,75.69
2023-01-15T05:39:27.680Z,75.69
2023-01-15T05:40:27.668Z,75.69
2023-01-15T05:41:27.662Z,75.69
2023-01-15T05:42:27.647Z,75.69
2023-01-15T05:43:27.629Z,75.69
2023-01-15T05:44:27.615Z,75.59
2023-01-15T05:45:27.602Z,75.59
2023-01-15T05:46:27.653Z,75.59
2023-01-15T05:47:27.579Z,75.59
2023-01-15T05:48:27.565Z,75.59
2023-01-15T05:49:27.571Z,75.59
2023-01-15T05:50:29.013Z,75.59
2023-01-15T05:51:27.525Z,75.59
2023-01-15T05:52:27.510Z,75.48
2023-01-15T05:53:27.504Z,75.48
2023-01-15T05:54:27.524Z,75.48
2023-01-15T05:55:27.473Z,75.48
2023-01-15T05:56:27.462Z,75.48
2023-01-15T05:57:27.447Z,75.48
2023-01-15T05:58:27.439Z,75.48
2023-01-15T05:59:27.418Z,75.48
2023-01-15T06:00:29.202Z,75.48
2023-01-15T06:01:27.421Z,75.48
2023-01-15T06:02:27.420Z,75.38
2023-01-15T06:03:27.398Z,75.38
2023-01-15T06:04:27.353Z,75.35
2023-01-15T06:05:27.339Z,75.38
2023-01-15T06:06:27.325Z,75.38
2023-01-15T06:07:27.313Z,75.38
2023-01-15T06:08:27.299Z,75.38
2023-01-15T06:09:27.287Z,75.38
2023-01-15T06:10:27.273Z,75.38
2023-01-15T06:11:27.266Z,75.38
2023-01-15T06:12:27.253Z,75.38
2023-01-15T06:13:27.244Z,75.38
2023-01-15T06:14:27.218Z,75.38
2023-01-15T06:15:27.208Z,75.38
2023-01-15T06:16:27.194Z,75.28
2023-01-15T06:17:27.183Z,75.28
2023-01-15T06:18:27.167Z,75.28
2023-01-15T06:19:27.158Z,75.28
2023-01-15T06:20:27.142Z,75.28
2023-01-15T06:21:27.128Z,75.25
2023-01-15T06:22:27.115Z,75.28
2023-01-15T06:23:27.102Z,75.25
2023-01-15T06:24:27.088Z,75.28
2023-01-15T06:25:27.078Z,75.28
2023-01-15T06:26:27.063Z,75.18
2023-01-15T06:27:27.050Z,75.28
2023-01-15T06:28:27.040Z,75.18
2023-01-15T06:29:27.026Z,75.18
2023-01-15T06:30:27.014Z,75.18
2023-01-15T06:31:27.212Z,75.18
2023-01-15T06:32:26.983Z,75.18
2023-01-15T06:33:26.979Z,75.18
2023-01-15T06:34:26.960Z,75.18
2023-01-15T06:35:26.946Z,75.18
2023-01-15T06:36:26.943Z,75.18
2023-01-15T06:37:26.920Z,75.18
2023-01-15T06:38:26.907Z,75.18
2023-01-15T06:39:26.896Z,75.18
2023-01-15T06:40:26.884Z,75.18
2023-01-15T06:41:26.876Z,75.18
2023-01-15T06:42:26.852Z,75.18
2023-01-15T06:43:26.844Z,75.07
2023-01-15T06:44:28.316Z,75.07
2023-01-15T06:45:26.815Z,75.07
2023-01-15T06:46:26.866Z,75.07
2023-01-15T06:47:26.789Z,75.18
2023-01-15T06:48:26.775Z,75.07
2023-01-15T06:49:26.777Z,75.18
2023-01-15T06:50:26.748Z,75.07
2023-01-15T06:51:26.740Z,75.07
2023-01-15T06:52:26.725Z,75.07
2023-01-15T06:53:26.711Z,75.07
2023-01-15T06:54:26.699Z,75.07
2023-01-15T06:55:26.684Z,75.07
2023-01-15T06:56:26.670Z,75.07
2023-01-15T06:57:26.670Z,75.07
2023-01-15T06:58:26.647Z,74.97
2023-01-15T06:59:26.634Z,74.97
2023-01-15T07:00:26.627Z,74.97
2023-01-15T07:01:26.664Z,74.97
2023-01-15T07:02:26.595Z,74.97
2023-01-15T07:03:26.581Z,74.97
2023-01-15T07:04:26.572Z,74.97
2023-01-15T07:05:26.554Z,74.97
2023-01-15T07:06:26.619Z,74.97
2023-01-15T07:07:26.528Z,75.07
2023-01-15T07:08:26.513Z,75.07
2023-01-15T07:09:26.504Z,75.07
2023-01-15T07:10:26.486Z,75.07
2023-01-15T07:11:26.475Z,74.97
2023-01-15T07:12:26.463Z,74.97
2023-01-15T07:13:26.450Z,74.97
2023-01-15T07:14:26.437Z,74.97
2023-01-15T07:15:26.424Z,74.97
2023-01-15T07:16:26.511Z,74.97
2023-01-15T07:17:26.398Z,74.97
2023-01-15T07:18:26.383Z,74.87
2023-01-15T07:19:26.374Z,74.76
2023-01-15T07:20:26.371Z,74.76
2023-01-15T07:21:26.349Z,74.67
2023-01-15T07:22:26.333Z,74.67
2023-01-15T07:23:26.321Z,74.67
2023-01-15T07:24:26.305Z,74.56
2023-01-15T07:25:26.293Z,74.67
2023-01-15T07:26:26.279Z,74.67
2023-01-15T07:27:26.266Z,74.56
2023-01-15T07:28:26.252Z,74.67
2023-01-15T07:29:26.240Z,74.67
2023-01-15T07:30:26.226Z,74.56
2023-01-15T07:31:26.252Z,74.56
2023-01-15T07:32:26.204Z,74.56
2023-01-15T07:33:26.188Z,74.56
2023-01-15T07:34:26.175Z,74.56
2023-01-15T07:35:26.166Z,74.56
2023-01-15T07:36:26.149Z,74.56
2023-01-15T07:37:28.510Z,74.46
2023-01-15T07:38:26.124Z,74.46
2023-01-15T07:39:26.127Z,74.46
2023-01-15T07:40:26.095Z,74.56
2023-01-15T07:41:26.088Z,74.46
2023-01-15T07:42:26.071Z,74.46
2023-01-15T07:43:26.058Z,74.46
2023-01-15T07:44:26.045Z,74.56
2023-01-15T07:45:26.120Z,74.56
2023-01-15T07:46:26.035Z,74.56
2023-01-15T07:47:26.008Z,74.46
2023-01-15T07:48:25.992Z,74.46
2023-01-15T07:49:25.980Z,74.46
2023-01-15T07:50:25.966Z,74.46
2023-01-15T07:51:25.957Z,74.46
2023-01-15T07:52:25.938Z,74.46
2023-01-15T07:53:25.935Z,74.56
2023-01-15T07:54:25.913Z,74.56
2023-01-15T07:55:25.909Z,74.56
2023-01-15T07:56:25.895Z,74.56
2023-01-15T07:57:25.876Z,74.56
2023-01-15T07:58:25.861Z,74.56
2023-01-15T07:59:25.853Z,74.56
2023-01-15T08:00:25.839Z,74.56
2023-01-15T08:01:25.925Z,74.56
2023-01-15T08:02:25.815Z,74.56
2023-01-15T08:03:25.808Z,74.56
2023-01-15T08:04:25.782Z,74.56
2023-01-15T08:05:25.772Z,74.56
2023-01-15T08:06:25.762Z,74.56
2023-01-15T08:07:25.745Z,74.56
2023-01-15T08:08:25.729Z,74.56
2023-01-15T08:09:25.724Z,74.56
2023-01-15T08:10:25.704Z,74.56
2023-01-15T08:11:25.695Z,74.56
2023-01-15T08:12:25.681Z,74.56
2023-01-15T08:13:25.667Z,74.56
2023-01-15T08:14:25.651Z,74.56
2023-01-15T08:15:25.647Z,74.56
2023-01-15T08:16:25.649Z,74.56
2023-01-15T08:17:25.616Z,74.46
2023-01-15T08:18:25.598Z,74.56
2023-01-15T08:19:25.594Z,74.46
2023-01-15T08:20:25.681Z,74.46
2023-01-15T08:21:25.567Z,74.56
2023-01-15T08:22:25.546Z,74.56
2023-01-15T08:23:25.543Z,74.56
2023-01-15T08:24:25.527Z,74.56
2023-01-15T08:25:25.509Z,74.46
2023-01-15T08:26:25.494Z,74.46
2023-01-15T08:27:25.488Z,74.56
2023-01-15T08:28:25.471Z,74.46
2023-01-15T08:29:25.458Z,74.46
2023-01-15T08:30:25.520Z,74.46
2023-01-15T08:31:25.599Z,74.46
2023-01-15T08:32:25.445Z,74.46
2023-01-15T08:33:25.407Z,74.46
2023-01-15T08:34:25.390Z,74.46
2023-01-15T08:35:25.379Z,74.46
2023-01-15T08:36:25.365Z,74.46
2023-01-15T08:37:25.555Z,74.46
2023-01-15T08:38:25.339Z,74.46
2023-01-15T08:39:25.327Z,74.46
2023-01-15T08:40:25.394Z,74.46
2023-01-15T08:41:25.306Z,74.46
2023-01-15T08:42:25.292Z,74.46
2023-01-15T08:43:25.281Z,74.46
2023-01-15T08:44:25.261Z,74.46
2023-01-15T08:45:25.276Z,74.46
2023-01-15T08:46:25.236Z,74.46
2023-01-15T08:47:25.222Z,74.46
2023-01-15T08:48:25.211Z,74.35
2023-01-15T08:49:25.198Z,74.35
2023-01-15T08:50:25.302Z,74.35
2023-01-15T08:51:25.226Z,74.35
2023-01-15T08:52:25.159Z,74.35
2023-01-15T08:53:25.144Z,74.35
2023-01-15T08:54:25.130Z,74.35
2023-01-15T08:55:25.116Z,74.35
2023-01-15T08:56:25.103Z,74.35
2023-01-15T08:57:25.092Z,74.35
2023-01-15T08:58:25.077Z,74.35
2023-01-15T08:59:25.066Z,74.35
2023-01-15T09:00:25.080Z,74.35
2023-01-15T09:01:25.107Z,74.35
2023-01-15T09:02:25.028Z,74.35
2023-01-15T09:03:25.017Z,74.35
2023-01-15T09:04:25.022Z,74.35
2023-01-15T09:05:24.985Z,74.46
2023-01-15T09:06:24.972Z,74.46
2023-01-15T09:07:25.003Z,74.46
2023-01-15T09:08:24.949Z,74.46
2023-01-15T09:09:24.932Z,74.35
2023-01-15T09:10:24.918Z,74.35
2023-01-15T09:11:24.906Z,74.35
2023-01-15T09:12:24.938Z,74.35
2023-01-15T09:13:24.880Z,74.35
2023-01-15T09:14:58.385Z,74.35
2023-01-15T09:15:25.895Z,74.35
2023-01-15T09:16:24.947Z,74.25
2023-01-15T09:17:24.827Z,74.25
2023-01-15T09:18:24.813Z,74.35
2023-01-15T09:19:24.802Z,74.25
2023-01-15T09:20:24.792Z,74.25
2023-01-15T09:21:24.778Z,74.35
2023-01-15T09:22:24.761Z,74.25
2023-01-15T09:23:24.749Z,74.25
2023-01-15T09:24:24.735Z,74.35
2023-01-15T09:25:24.738Z,74.35
2023-01-15T09:26:24.727Z,74.35
2023-01-15T09:27:24.706Z,74.25
2023-01-15T09:28:24.685Z,74.25
2023-01-15T09:29:24.670Z,74.25
2023-01-15T09:30:24.657Z,74.25
2023-01-15T09:31:24.649Z,74.25
2023-01-15T09:32:24.635Z,74.25
2023-01-15T09:33:24.622Z,74.25
2023-01-15T09:34:24.605Z,74.25
2023-01-15T09:35:24.596Z,74.25
2023-01-15T09:36:24.578Z,74.25
2023-01-15T09:37:24.579Z,74.25
2023-01-15T09:38:24.555Z,74.35
2023-01-15T09:39:24.542Z,74.35
2023-01-15T09:40:24.526Z,74.25
2023-01-15T09:41:24.516Z,74.25
2023-01-15T09:42:24.519Z,74.15
2023-01-15T09:43:24.490Z,74.15
2023-01-15T09:44:24.477Z,74.15
2023-01-15T09:45:24.477Z,74.15
2023-01-15T09:46:24.489Z,74.15
2023-01-15T09:47:24.436Z,74.15
2023-01-15T09:48:24.423Z,74.15
2023-01-15T09:49:24.413Z,74.15
2023-01-15T09:50:24.397Z,74.15
2023-01-15T09:51:24.384Z,74.25
2023-01-15T09:52:24.368Z,74.25
2023-01-15T09:53:24.358Z,74.15
2023-01-15T09:54:24.351Z,74.15
2023-01-15T09:55:24.338Z,74.15
2023-01-15T09:56:24.317Z,74.15
2023-01-15T09:57:24.309Z,74.15
2023-01-15T09:58:24.292Z,74.15
2023-01-15T09:59:24.279Z,74.15
2023-01-15T10:00:24.266Z,74.05
2023-01-15T10:01:24.292Z,74.05
2023-01-15T10:02:24.240Z,74.05
2023-01-15T10:03:24.278Z,74.05
2023-01-15T10:04:24.268Z,74.05
2023-01-15T10:05:24.201Z,74.05
2023-01-15T10:06:24.193Z,74.05
2023-01-15T10:07:24.175Z,74.05
2023-01-15T10:08:24.168Z,73.95
2023-01-15T10:09:24.151Z,73.95
2023-01-15T10:10:24.134Z,73.95
2023-01-15T10:11:24.124Z,73.95
2023-01-15T10:12:24.108Z,73.95
2023-01-15T10:13:24.098Z,73.95
2023-01-15T10:14:24.088Z,73.95
2023-01-15T10:15:24.069Z,73.95
2023-01-15T10:16:24.057Z,73.95
2023-01-15T10:17:24.043Z,73.95
2023-01-15T10:18:24.042Z,73.95
2023-01-15T10:19:24.015Z,73.95
2023-01-15T10:20:24.004Z,73.95
2023-01-15T10:21:23.990Z,73.84
2023-01-15T10:22:23.978Z,73.84
2023-01-15T10:23:23.966Z,73.84
2023-01-15T10:24:23.952Z,73.84
2023-01-15T10:25:23.944Z,73.84
2023-01-15T10:26:23.927Z,73.84
2023-01-15T10:27:23.927Z,73.84
2023-01-15T10:28:23.899Z,73.84
2023-01-15T10:29:23.885Z,73.84
2023-01-15T10:30:23.873Z,73.74
2023-01-15T10:31:23.917Z,73.74
2023-01-15T10:32:23.845Z,73.84
2023-01-15T10:33:23.833Z,73.84
2023-01-15T10:34:23.822Z,73.74
2023-01-15T10:35:23.826Z,73.74
2023-01-15T10:36:23.810Z,73.74
2023-01-15T10:37:23.779Z,73.74
2023-01-15T10:38:23.769Z,73.74
2023-01-15T10:39:23.753Z,73.74
2023-01-15T10:40:23.748Z,73.84
2023-01-15T10:41:23.743Z,73.74
2023-01-15T10:42:23.716Z,73.74
2023-01-15T10:43:23.702Z,73.74
2023-01-15T10:44:23.688Z,73.84
2023-01-15T10:45:23.682Z,73.84
2023-01-15T10:46:23.761Z,73.74
2023-01-15T10:47:23.648Z,73.84
2023-01-15T10:48:23.637Z,73.84
2023-01-15T10:49:23.625Z,73.84
2023-01-15T10:50:23.617Z,73.84
2023-01-15T10:51:23.605Z,73.84
2023-01-15T10:52:23.587Z,73.74
2023-01-15T10:53:23.571Z,73.74
2023-01-15T10:54:23.563Z,73.74
2023-01-15T10:55:23.544Z,73.74
2023-01-15T10:56:23.532Z,73.74
2023-01-15T10:57:23.518Z,73.74
2023-01-15T10:58:23.506Z,73.63
2023-01-15T10:59:23.495Z,73.63
2023-01-15T11:00:23.482Z,73.63
2023-01-15T11:01:23.731Z,73.63
2023-01-15T11:02:23.585Z,73.63
2023-01-15T11:03:23.439Z,73.63
2023-01-15T11:04:23.431Z,73.63
2023-01-15T11:05:23.413Z,73.63
2023-01-15T11:06:23.409Z,73.63
2023-01-15T11:07:23.386Z,73.63
2023-01-15T11:09:24.404Z,73.63
2023-01-15T11:10:23.350Z,73.53
2023-01-15T11:11:23.337Z,73.53
2023-01-15T11:12:23.328Z,73.63
2023-01-15T11:13:23.307Z,73.53
2023-01-15T11:14:23.296Z,73.53
2023-01-15T11:15:23.280Z,73.53
2023-01-15T11:16:23.270Z,73.53
2023-01-15T11:17:23.255Z,73.43
2023-01-15T11:18:23.243Z,73.43
2023-01-15T11:19:23.230Z,73.43
2023-01-15T11:20:23.216Z,73.43
2023-01-15T11:21:23.277Z,73.43
2023-01-15T11:22:23.200Z,73.43
2023-01-15T11:23:23.184Z,73.43
2023-01-15T11:24:23.166Z,73.43
2023-01-15T11:25:23.149Z,73.43
2023-01-15T11:26:23.137Z,73.43
2023-01-15T11:27:23.126Z,73.43
2023-01-15T11:28:23.115Z,73.43
2023-01-15T11:29:23.097Z,73.43
2023-01-15T11:30:23.086Z,73.33
2023-01-15T11:31:23.132Z,73.33
2023-01-15T11:32:23.059Z,73.33
2023-01-15T11:33:23.048Z,73.22
2023-01-15T11:34:23.035Z,73.33
2023-01-15T11:35:23.021Z,73.33
2023-01-15T11:36:23.006Z,73.33
2023-01-15T11:37:22.999Z,73.33
2023-01-15T11:38:22.984Z,73.33
2023-01-15T11:39:22.966Z,73.33
2023-01-15T11:40:22.953Z,73.33
2023-01-15T11:41:22.939Z,73.22
2023-01-15T11:42:22.932Z,73.33
2023-01-15T11:43:22.915Z,73.22
2023-01-15T11:44:22.904Z,73.33
2023-01-15T11:45:22.885Z,73.22
2023-01-15T11:46:22.942Z,73.22
2023-01-15T11:47:22.865Z,73.22
2023-01-15T11:48:22.851Z,73.22
2023-01-15T11:49:22.854Z,73.12
2023-01-15T11:50:22.824Z,73.12
2023-01-15T11:51:22.826Z,73.12
2023-01-15T11:52:22.807Z,73.12
2023-01-15T11:53:22.783Z,73.12
2023-01-15T11:54:22.772Z,73.12
2023-01-15T11:55:22.760Z,73.02
2023-01-15T11:56:22.745Z,73.12
2023-01-15T11:57:22.731Z,73.09
2023-01-15T11:58:22.716Z,73.12
2023-01-15T11:59:22.708Z,73.12
2023-01-15T12:00:22.693Z,73.12
2023-01-15T12:01:22.710Z,73.12
2023-01-15T12:02:22.670Z,73.12
2023-01-15T12:03:22.755Z,73.12
2023-01-15T12:04:22.822Z,73.12
2023-01-15T12:05:22.634Z,73.02
2023-01-15T12:06:22.617Z,73.02
2023-01-15T12:07:22.600Z,73.02
2023-01-15T12:08:22.593Z,73.12
2023-01-15T12:09:22.596Z,73.12
2023-01-15T12:10:22.563Z,73.02
2023-01-15T12:11:27.163Z,73.02
2023-01-15T12:12:22.538Z,72.99
2023-01-15T12:13:22.527Z,72.99
2023-01-15T12:14:22.516Z,73.02
2023-01-15T12:15:22.501Z,72.99
2023-01-15T12:16:22.569Z,72.99
2023-01-15T12:17:22.469Z,72.91
2023-01-15T12:18:22.482Z,72.99
2023-01-15T12:19:22.443Z,72.99
2023-01-15T12:20:22.432Z,72.88
2023-01-15T12:21:22.425Z,72.91
2023-01-15T12:22:22.430Z,72.88
2023-01-15T12:23:22.405Z,72.88
2023-01-15T12:24:22.383Z,72.91
2023-01-15T12:25:22.364Z,72.91
2023-01-15T12:26:22.365Z,72.91
2023-01-15T12:27:22.342Z,72.78
2023-01-15T12:28:22.327Z,72.91
2023-01-15T12:29:22.320Z,72.91
2023-01-15T12:30:22.302Z,72.91
2023-01-15T12:31:22.378Z,72.91
2023-01-15T12:32:22.277Z,72.91
2023-01-15T12:33:22.260Z,72.91
2023-01-15T12:34:22.250Z,72.91
2023-01-15T12:35:22.235Z,72.91
2023-01-15T12:36:22.266Z,72.91
2023-01-15T12:37:22.212Z,72.91
2023-01-15T12:38:22.201Z,72.91
2023-01-15T12:39:22.184Z,72.91
2023-01-15T12:40:22.172Z,72.88
2023-01-15T12:41:22.158Z,72.91
2023-01-15T12:42:22.150Z,72.82
2023-01-15T12:43:22.131Z,72.82
2023-01-15T12:44:22.120Z,72.82
2023-01-15T12:45:22.133Z,72.82
2023-01-15T12:46:22.241Z,72.82
2023-01-15T12:47:22.092Z,72.82
2023-01-15T12:48:22.073Z,72.82
2023-01-15T12:49:22.057Z,72.78
2023-01-15T12:50:22.044Z,72.78
2023-01-15T12:51:23.795Z,72.78
2023-01-15T12:52:22.015Z,72.82
2023-01-15T12:53:22.021Z,72.71